sensor_id;sensor_type;location;lat;lon;timestamp;pressure;altitude;pressure_sealevel;temperature;humidity
63903;BME280;50072;50.678;13.938;2023-07-16T00:01:13;98862.66;;;23.32;59.60
63903;BME280;50072;50.678;13.938;2023-07-16T00:03:57;98865.53;;;23.30;59.97
63903;BME280;50072;50.678;13.938;2023-07-16T00:06:25;98869.50;;;23.16;59.81
63903;BME280;50072;50.678;13.938;2023-07-16T00:08:52;98865.56;;;23.09;60.18
63903;BME280;50072;50.678;13.938;2023-07-16T00:11:23;98871.00;;;22.99;60.28
63903;BME280;50072;50.678;13.938;2023-07-16T00:13:57;98873.47;;;22.81;60.66
63903;BME280;50072;50.678;13.938;2023-07-16T00:16:27;98876.56;;;22.67;61.24
63903;BME280;50072;50.678;13.938;2023-07-16T00:18:57;98879.84;;;22.61;61.68
63903;BME280;50072;50.678;13.938;2023-07-16T00:21:24;98874.78;;;22.56;62.80
63903;BME280;50072;50.678;13.938;2023-07-16T00:23:50;98867.69;;;22.65;63.77
63903;BME280;50072;50.678;13.938;2023-07-16T00:26:18;98875.84;;;22.65;64.90
63903;BME280;50072;50.678;13.938;2023-07-16T00:28:45;98883.50;;;22.71;65.32
63903;BME280;50072;50.678;13.938;2023-07-16T00:31:17;98889.53;;;22.74;65.25
63903;BME280;50072;50.678;13.938;2023-07-16T00:33:43;99008.03;;;22.61;64.81
63903;BME280;50072;50.678;13.938;2023-07-16T00:36:10;99094.38;;;22.28;63.36
63903;BME280;50072;50.678;13.938;2023-07-16T00:38:36;99051.19;;;22.55;62.62
63903;BME280;50072;50.678;13.938;2023-07-16T00:41:04;99028.34;;;22.89;60.98
63903;BME280;50072;50.678;13.938;2023-07-16T00:43:37;99107.75;;;23.07;60.62
63903;BME280;50072;50.678;13.938;2023-07-16T00:46:10;99089.72;;;23.16;60.00
63903;BME280;50072;50.678;13.938;2023-07-16T00:48:47;99073.69;;;23.22;59.62
63903;BME280;50072;50.678;13.938;2023-07-16T00:51:22;99079.50;;;23.29;58.74
63903;BME280;50072;50.678;13.938;2023-07-16T00:53:56;99086.72;;;23.40;58.24
63903;BME280;50072;50.678;13.938;2023-07-16T00:56:28;99082.78;;;23.54;57.03
63903;BME280;50072;50.678;13.938;2023-07-16T00:58:57;99070.78;;;23.66;56.45
63903;BME280;50072;50.678;13.938;2023-07-16T01:01:23;99070.22;;;23.72;56.46
63903;BME280;50072;50.678;13.938;2023-07-16T01:03:52;99066.81;;;23.80;56.33
63903;BME280;50072;50.678;13.938;2023-07-16T01:06:41;99056.81;;;23.90;56.13
63903;BME280;50072;50.678;13.938;2023-07-16T01:09:16;99059.97;;;23.95;56.25
63903;BME280;50072;50.678;13.938;2023-07-16T01:11:46;99044.47;;;24.06;56.50
63903;BME280;50072;50.678;13.938;2023-07-16T01:14:16;99042.47;;;24.18;56.04
63903;BME280;50072;50.678;13.938;2023-07-16T01:16:43;99013.56;;;24.25;56.03
63903;BME280;50072;50.678;13.938;2023-07-16T01:19:09;98997.16;;;24.25;56.16
63903;BME280;50072;50.678;13.938;2023-07-16T01:30:47;98986.06;;;24.17;56.37
63903;BME280;50072;50.678;13.938;2023-07-16T01:33:20;98991.53;;;24.17;56.25
63903;BME280;50072;50.678;13.938;2023-07-16T01:35:47;99009.38;;;24.11;56.18
63903;BME280;50072;50.678;13.938;2023-07-16T01:38:14;99005.34;;;24.15;56.51
63903;BME280;50072;50.678;13.938;2023-07-16T01:40:41;98993.25;;;24.08;56.69
63903;BME280;50072;50.678;13.938;2023-07-16T01:43:13;99001.88;;;24.03;56.73
63903;BME280;50072;50.678;13.938;2023-07-16T01:45:45;98980.88;;;24.04;56.51
63903;BME280;50072;50.678;13.938;2023-07-16T01:48:32;98953.00;;;24.10;56.36
63903;BME280;50072;50.678;13.938;2023-07-16T01:50:58;98942.91;;;24.10;55.80
63903;BME280;50072;50.678;13.938;2023-07-16T01:53:27;98965.06;;;24.17;54.72
63903;BME280;50072;50.678;13.938;2023-07-16T01:55:56;98998.16;;;24.24;54.58
63903;BME280;50072;50.678;13.938;2023-07-16T01:58:28;99026.13;;;24.37;54.84
63903;BME280;50072;50.678;13.938;2023-07-16T02:00:54;99044.09;;;24.40;55.23
63903;BME280;50072;50.678;13.938;2023-07-16T02:03:21;99034.16;;;24.39;55.01
63903;BME280;50072;50.678;13.938;2023-07-16T02:05:49;99031.72;;;24.36;55.33
63903;BME280;50072;50.678;13.938;2023-07-16T02:08:21;99031.28;;;24.30;55.86
63903;BME280;50072;50.678;13.938;2023-07-16T02:10:54;99030.28;;;24.32;55.87
63903;BME280;50072;50.678;13.938;2023-07-16T02:13:25;99048.69;;;24.29;55.29
63903;BME280;50072;50.678;13.938;2023-07-16T02:15:57;99044.94;;;24.30;55.27
63903;BME280;50072;50.678;13.938;2023-07-16T02:18:23;99055.19;;;24.28;55.49
63903;BME280;50072;50.678;13.938;2023-07-16T02:20:53;99069.25;;;24.24;55.73
63903;BME280;50072;50.678;13.938;2023-07-16T02:23:20;99070.13;;;24.24;56.28
63903;BME280;50072;50.678;13.938;2023-07-16T02:25:57;99089.53;;;24.21;56.05
63903;BME280;50072;50.678;13.938;2023-07-16T02:28:23;99091.69;;;24.18;56.23
63903;BME280;50072;50.678;13.938;2023-07-16T02:30:58;99092.25;;;24.21;55.20
63903;BME280;50072;50.678;13.938;2023-07-16T02:33:29;99100.66;;;24.39;54.83
63903;BME280;50072;50.678;13.938;2023-07-16T02:35:57;99103.00;;;24.54;54.94
63903;BME280;50072;50.678;13.938;2023-07-16T02:38:24;99117.97;;;24.59;54.51
63903;BME280;50072;50.678;13.938;2023-07-16T02:40:57;99136.47;;;24.67;53.46
63903;BME280;50072;50.678;13.938;2023-07-16T02:43:27;99153.44;;;24.71;53.59
63903;BME280;50072;50.678;13.938;2023-07-16T02:45:55;99173.19;;;24.74;53.98
63903;BME280;50072;50.678;13.938;2023-07-16T02:48:21;99171.31;;;24.75;54.45
63903;BME280;50072;50.678;13.938;2023-07-16T02:50:50;99171.63;;;24.81;54.27
63903;BME280;50072;50.678;13.938;2023-07-16T02:53:16;99193.22;;;24.75;54.35
63903;BME280;50072;50.678;13.938;2023-07-16T02:55:45;99220.00;;;24.71;54.66
63903;BME280;50072;50.678;13.938;2023-07-16T02:58:11;99220.00;;;24.71;54.62
63903;BME280;50072;50.678;13.938;2023-07-16T03:00:36;99232.81;;;24.71;56.03
63903;BME280;50072;50.678;13.938;2023-07-16T03:03:04;99242.88;;;24.60;55.60
63903;BME280;50072;50.678;13.938;2023-07-16T03:05:31;99271.88;;;24.52;56.68
63903;BME280;50072;50.678;13.938;2023-07-16T03:07:57;99280.13;;;24.30;58.48
63903;BME280;50072;50.678;13.938;2023-07-16T03:10:24;99276.63;;;24.19;60.71
63903;BME280;50072;50.678;13.938;2023-07-16T03:12:56;99284.38;;;23.39;66.13
63903;BME280;50072;50.678;13.938;2023-07-16T03:15:22;99267.84;;;22.85;70.12
63903;BME280;50072;50.678;13.938;2023-07-16T03:17:49;99259.94;;;22.37;71.96
63903;BME280;50072;50.678;13.938;2023-07-16T03:20:14;99262.50;;;22.16;77.26
63903;BME280;50072;50.678;13.938;2023-07-16T03:22:41;99283.28;;;21.94;77.40
63903;BME280;50072;50.678;13.938;2023-07-16T03:25:07;99285.84;;;21.84;77.84
63903;BME280;50072;50.678;13.938;2023-07-16T03:27:34;99271.75;;;21.79;81.37
63903;BME280;50072;50.678;13.938;2023-07-16T03:30:02;99251.47;;;21.83;84.31
63903;BME280;50072;50.678;13.938;2023-07-16T03:32:28;99240.66;;;21.82;85.40
63903;BME280;50072;50.678;13.938;2023-07-16T03:34:54;99249.72;;;21.82;80.88
63903;BME280;50072;50.678;13.938;2023-07-16T03:37:20;99246.22;;;21.80;82.63
63903;BME280;50072;50.678;13.938;2023-07-16T03:39:45;99248.47;;;21.86;84.51
63903;BME280;50072;50.678;13.938;2023-07-16T03:42:11;99286.50;;;21.88;86.06
63903;BME280;50072;50.678;13.938;2023-07-16T03:44:37;99271.38;;;21.84;85.63
63903;BME280;50072;50.678;13.938;2023-07-16T03:47:03;99271.47;;;21.71;84.12
63903;BME280;50072;50.678;13.938;2023-07-16T03:49:29;99280.63;;;21.46;87.73
63903;BME280;50072;50.678;13.938;2023-07-16T03:51:57;99296.00;;;21.23;94.10
63903;BME280;50072;50.678;13.938;2023-07-16T03:54:24;99316.66;;;21.01;100.00
63903;BME280;50072;50.678;13.938;2023-07-16T03:56:52;99292.00;;;20.78;100.00
63903;BME280;50072;50.678;13.938;2023-07-16T03:59:17;99282.81;;;20.68;100.00
63903;BME280;50072;50.678;13.938;2023-07-16T04:01:44;99275.94;;;20.62;100.00
63903;BME280;50072;50.678;13.938;2023-07-16T04:04:10;99285.41;;;20.57;100.00
63903;BME280;50072;50.678;13.938;2023-07-16T04:06:36;99292.56;;;20.58;100.00
63903;BME280;50072;50.678;13.938;2023-07-16T04:09:01;99298.00;;;20.58;100.00
63903;BME280;50072;50.678;13.938;2023-07-16T04:11:28;99317.81;;;20.60;100.00
63903;BME280;50072;50.678;13.938;2023-07-16T04:13:54;99319.13;;;20.54;100.00
63903;BME280;50072;50.678;13.938;2023-07-16T04:16:22;99305.31;;;20.44;100.00
63903;BME280;50072;50.678;13.938;2023-07-16T04:18:47;99299.66;;;20.47;100.00
63903;BME280;50072;50.678;13.938;2023-07-16T04:21:13;99300.94;;;20.55;100.00
63903;BME280;50072;50.678;13.938;2023-07-16T04:23:39;99311.69;;;20.56;100.00
63903;BME280;50072;50.678;13.938;2023-07-16T04:26:05;99318.13;;;20.55;100.00
63903;BME280;50072;50.678;13.938;2023-07-16T04:28:31;99325.53;;;20.40;100.00
63903;BME280;50072;50.678;13.938;2023-07-16T04:30:56;99332.38;;;20.46;100.00
63903;BME280;50072;50.678;13.938;2023-07-16T04:33:24;99341.94;;;20.51;100.00
63903;BME280;50072;50.678;13.938;2023-07-16T04:35:50;99361.09;;;20.50;100.00
63903;BME280;50072;50.678;13.938;2023-07-16T04:38:17;99369.25;;;20.37;100.00
63903;BME280;50072;50.678;13.938;2023-07-16T04:40:44;99373.81;;;20.24;100.00
63903;BME280;50072;50.678;13.938;2023-07-16T04:43:10;99361.72;;;20.15;100.00
63903;BME280;50072;50.678;13.938;2023-07-16T04:45:37;99350.09;;;20.13;100.00
63903;BME280;50072;50.678;13.938;2023-07-16T04:48:02;99368.25;;;20.12;100.00
63903;BME280;50072;50.678;13.938;2023-07-16T04:50:28;99381.72;;;20.14;100.00
63903;BME280;50072;50.678;13.938;2023-07-16T04:52:54;99381.63;;;20.15;100.00
63903;BME280;50072;50.678;13.938;2023-07-16T04:55:20;99380.63;;;20.16;100.00
63903;BME280;50072;50.678;13.938;2023-07-16T04:57:45;99379.66;;;20.17;100.00
63903;BME280;50072;50.678;13.938;2023-07-16T05:00:11;99381.97;;;20.24;100.00
63903;BME280;50072;50.678;13.938;2023-07-16T05:02:37;99391.44;;;20.31;100.00
63903;BME280;50072;50.678;13.938;2023-07-16T05:05:03;99383.81;;;20.36;100.00
63903;BME280;50072;50.678;13.938;2023-07-16T05:07:30;99381.09;;;20.36;100.00
63903;BME280;50072;50.678;13.938;2023-07-16T05:09:56;99392.19;;;20.33;100.00
63903;BME280;50072;50.678;13.938;2023-07-16T05:12:22;99392.84;;;20.37;100.00
63903;BME280;50072;50.678;13.938;2023-07-16T05:14:48;99369.47;;;20.34;100.00
63903;BME280;50072;50.678;13.938;2023-07-16T05:17:14;99346.53;;;20.38;100.00
63903;BME280;50072;50.678;13.938;2023-07-16T05:19:46;99343.91;;;20.37;100.00
63903;BME280;50072;50.678;13.938;2023-07-16T05:22:12;99364.38;;;20.42;100.00
63903;BME280;50072;50.678;13.938;2023-07-16T05:24:45;99349.53;;;20.46;100.00
63903;BME280;50072;50.678;13.938;2023-07-16T05:27:18;99336.97;;;20.45;100.00
63903;BME280;50072;50.678;13.938;2023-07-16T05:29:44;99335.94;;;20.46;100.00
63903;BME280;50072;50.678;13.938;2023-07-16T05:32:10;99351.50;;;20.57;100.00
63903;BME280;50072;50.678;13.938;2023-07-16T05:34:36;99321.84;;;20.67;100.00
63903;BME280;50072;50.678;13.938;2023-07-16T05:37:04;99325.41;;;20.67;100.00
63903;BME280;50072;50.678;13.938;2023-07-16T05:39:31;99331.06;;;20.77;100.00
63903;BME280;50072;50.678;13.938;2023-07-16T05:41:57;99337.78;;;20.84;100.00
63903;BME280;50072;50.678;13.938;2023-07-16T05:44:23;99335.94;;;20.98;100.00
63903;BME280;50072;50.678;13.938;2023-07-16T05:46:49;99353.00;;;21.00;100.00
63903;BME280;50072;50.678;13.938;2023-07-16T05:49:15;99347.75;;;21.10;100.00
63903;BME280;50072;50.678;13.938;2023-07-16T05:51:41;99340.63;;;21.20;100.00
63903;BME280;50072;50.678;13.938;2023-07-16T05:54:07;99340.50;;;21.21;100.00
63903;BME280;50072;50.678;13.938;2023-07-16T05:56:33;99350.97;;;21.28;100.00
63903;BME280;50072;50.678;13.938;2023-07-16T05:58:59;99353.44;;;21.31;100.00
63903;BME280;50072;50.678;13.938;2023-07-16T06:01:26;99350.72;;;21.31;100.00
63903;BME280;50072;50.678;13.938;2023-07-16T06:03:52;99349.28;;;21.38;100.00
63903;BME280;50072;50.678;13.938;2023-07-16T06:06:19;99371.38;;;21.46;100.00
63903;BME280;50072;50.678;13.938;2023-07-16T06:08:46;99386.69;;;21.47;100.00
63903;BME280;50072;50.678;13.938;2023-07-16T06:11:12;99382.25;;;21.46;100.00
63903;BME280;50072;50.678;13.938;2023-07-16T06:13:39;99381.75;;;21.65;100.00
63903;BME280;50072;50.678;13.938;2023-07-16T06:16:05;99373.00;;;21.73;100.00
63903;BME280;50072;50.678;13.938;2023-07-16T06:18:31;99386.28;;;21.78;100.00
63903;BME280;50072;50.678;13.938;2023-07-16T06:20:58;99372.06;;;21.85;100.00
63903;BME280;50072;50.678;13.938;2023-07-16T06:23:24;99387.44;;;21.86;100.00
63903;BME280;50072;50.678;13.938;2023-07-16T06:25:57;99398.44;;;21.85;100.00
63903;BME280;50072;50.678;13.938;2023-07-16T06:28:23;99403.47;;;21.78;100.00
63903;BME280;50072;50.678;13.938;2023-07-16T06:30:50;99415.41;;;21.88;100.00
63903;BME280;50072;50.678;13.938;2023-07-16T06:33:18;99410.78;;;22.02;100.00
63903;BME280;50072;50.678;13.938;2023-07-16T06:35:46;99414.00;;;22.07;100.00
63903;BME280;50072;50.678;13.938;2023-07-16T06:38:14;99411.88;;;21.99;100.00
63903;BME280;50072;50.678;13.938;2023-07-16T06:40:46;99433.44;;;22.02;100.00
63903;BME280;50072;50.678;13.938;2023-07-16T06:43:14;99445.66;;;21.97;100.00
63903;BME280;50072;50.678;13.938;2023-07-16T06:45:41;99446.41;;;21.99;100.00
63903;BME280;50072;50.678;13.938;2023-07-16T06:48:07;99457.44;;;21.97;100.00
63903;BME280;50072;50.678;13.938;2023-07-16T06:50:34;99465.16;;;22.03;100.00
63903;BME280;50072;50.678;13.938;2023-07-16T06:53:00;99468.09;;;22.00;100.00
63903;BME280;50072;50.678;13.938;2023-07-16T06:55:27;99462.56;;;22.02;100.00
63903;BME280;50072;50.678;13.938;2023-07-16T06:57:52;99464.44;;;22.13;100.00
63903;BME280;50072;50.678;13.938;2023-07-16T07:00:18;99472.78;;;22.22;100.00
63903;BME280;50072;50.678;13.938;2023-07-16T07:02:45;99466.34;;;22.23;100.00
63903;BME280;50072;50.678;13.938;2023-07-16T07:05:11;99453.06;;;21.95;100.00
63903;BME280;50072;50.678;13.938;2023-07-16T07:07:38;99444.63;;;21.86;100.00
63903;BME280;50072;50.678;13.938;2023-07-16T07:10:04;99445.66;;;21.97;100.00
63903;BME280;50072;50.678;13.938;2023-07-16T07:12:31;99447.38;;;21.86;100.00
63903;BME280;50072;50.678;13.938;2023-07-16T07:15:05;99455.06;;;21.93;100.00
63903;BME280;50072;50.678;13.938;2023-07-16T07:17:32;99444.66;;;22.22;100.00
63903;BME280;50072;50.678;13.938;2023-07-16T07:19:58;99447.09;;;22.38;100.00
63903;BME280;50072;50.678;13.938;2023-07-16T07:22:26;99464.38;;;22.61;100.00
63903;BME280;50072;50.678;13.938;2023-07-16T07:24:52;99459.81;;;22.73;100.00
63903;BME280;50072;50.678;13.938;2023-07-16T07:27:18;99446.78;;;22.65;100.00
63903;BME280;50072;50.678;13.938;2023-07-16T07:29:44;99449.38;;;22.55;100.00
63903;BME280;50072;50.678;13.938;2023-07-16T07:32:12;99469.50;;;22.77;100.00
63903;BME280;50072;50.678;13.938;2023-07-16T07:34:40;99483.69;;;23.05;100.00
63903;BME280;50072;50.678;13.938;2023-07-16T07:37:06;99481.84;;;23.28;100.00
63903;BME280;50072;50.678;13.938;2023-07-16T07:39:32;99487.19;;;23.18;100.00
63903;BME280;50072;50.678;13.938;2023-07-16T07:41:59;99492.25;;;23.23;100.00
63903;BME280;50072;50.678;13.938;2023-07-16T07:44:25;99483.09;;;23.47;100.00
63903;BME280;50072;50.678;13.938;2023-07-16T07:46:52;99487.53;;;23.70;100.00
63903;BME280;50072;50.678;13.938;2023-07-16T07:49:19;99479.44;;;23.91;100.00
63903;BME280;50072;50.678;13.938;2023-07-16T07:51:46;99482.59;;;24.08;100.00
63903;BME280;50072;50.678;13.938;2023-07-16T07:54:15;99483.84;;;24.04;98.88
63903;BME280;50072;50.678;13.938;2023-07-16T07:56:45;99482.38;;;24.00;100.00
63903;BME280;50072;50.678;13.938;2023-07-16T07:59:11;99488.09;;;23.97;99.81
63903;BME280;50072;50.678;13.938;2023-07-16T08:01:37;99480.81;;;23.74;100.00
63903;BME280;50072;50.678;13.938;2023-07-16T08:04:03;99481.84;;;24.38;98.87
63903;BME280;50072;50.678;13.938;2023-07-16T08:06:31;99478.13;;;24.07;98.15
63903;BME280;50072;50.678;13.938;2023-07-16T08:08:57;99472.09;;;23.92;100.00
63903;BME280;50072;50.678;13.938;2023-07-16T08:11:24;99474.91;;;24.34;98.96
63903;BME280;50072;50.678;13.938;2023-07-16T08:13:50;99468.56;;;24.34;97.17
63903;BME280;50072;50.678;13.938;2023-07-16T08:16:17;99474.16;;;24.86;94.08
63903;BME280;50072;50.678;13.938;2023-07-16T08:18:43;99473.78;;;25.31;93.91
63903;BME280;50072;50.678;13.938;2023-07-16T08:21:09;99475.22;;;26.07;89.54
63903;BME280;50072;50.678;13.938;2023-07-16T08:23:36;99469.59;;;26.38;86.71
63903;BME280;50072;50.678;13.938;2023-07-16T08:26:03;99465.41;;;26.04;87.09
63903;BME280;50072;50.678;13.938;2023-07-16T08:28:30;99476.50;;;25.21;88.53
63903;BME280;50072;50.678;13.938;2023-07-16T08:30:57;99470.47;;;24.96;90.74
63903;BME280;50072;50.678;13.938;2023-07-16T08:33:25;99471.03;;;24.90;88.54
63903;BME280;50072;50.678;13.938;2023-07-16T08:35:53;99462.59;;;24.82;89.93
63903;BME280;50072;50.678;13.938;2023-07-16T08:38:19;99473.06;;;24.98;89.27
63903;BME280;50072;50.678;13.938;2023-07-16T08:40:47;99472.06;;;25.51;89.44
63903;BME280;50072;50.678;13.938;2023-07-16T08:43:16;99477.41;;;25.72;87.50
63903;BME280;50072;50.678;13.938;2023-07-16T08:45:45;99473.06;;;25.50;88.27
63903;BME280;50072;50.678;13.938;2023-07-16T08:48:13;99471.09;;;25.72;92.57
63903;BME280;50072;50.678;13.938;2023-07-16T08:50:42;99475.72;;;25.81;90.93
63903;BME280;50072;50.678;13.938;2023-07-16T08:53:08;99473.03;;;26.00;89.84
63903;BME280;50072;50.678;13.938;2023-07-16T08:55:34;99483.56;;;26.05;90.32
63903;BME280;50072;50.678;13.938;2023-07-16T08:58:05;99491.03;;;25.93;91.17
63903;BME280;50072;50.678;13.938;2023-07-16T09:00:32;99489.41;;;25.71;82.59
63903;BME280;50072;50.678;13.938;2023-07-16T09:02:59;99486.59;;;25.52;78.64
63903;BME280;50072;50.678;13.938;2023-07-16T09:05:29;99494.22;;;25.17;72.38
63903;BME280;50072;50.678;13.938;2023-07-16T09:07:56;99497.75;;;25.08;73.32
63903;BME280;50072;50.678;13.938;2023-07-16T09:10:24;99491.41;;;25.28;73.87
63903;BME280;50072;50.678;13.938;2023-07-16T09:12:49;99498.25;;;25.13;72.97
63903;BME280;50072;50.678;13.938;2023-07-16T09:15:18;99489.47;;;25.19;73.78
63903;BME280;50072;50.678;13.938;2023-07-16T09:17:48;99503.16;;;25.19;71.25
63903;BME280;50072;50.678;13.938;2023-07-16T09:20:17;99498.59;;;25.29;70.46
63903;BME280;50072;50.678;13.938;2023-07-16T09:22:44;99506.94;;;25.28;69.83
63903;BME280;50072;50.678;13.938;2023-07-16T09:25:11;99503.25;;;25.70;71.82
63903;BME280;50072;50.678;13.938;2023-07-16T09:27:37;99505.84;;;26.41;69.04
63903;BME280;50072;50.678;13.938;2023-07-16T09:30:06;99507.75;;;27.27;64.61
63903;BME280;50072;50.678;13.938;2023-07-16T09:32:36;99507.53;;;27.11;64.99
63903;BME280;50072;50.678;13.938;2023-07-16T09:35:13;99498.66;;;27.27;62.99
63903;BME280;50072;50.678;13.938;2023-07-16T09:37:39;99503.41;;;27.34;59.67
63903;BME280;50072;50.678;13.938;2023-07-16T09:40:08;99493.47;;;27.14;61.30
63903;BME280;50072;50.678;13.938;2023-07-16T09:42:39;99499.19;;;27.30;62.31
63903;BME280;50072;50.678;13.938;2023-07-16T09:45:07;99508.56;;;26.90;59.02
63903;BME280;50072;50.678;13.938;2023-07-16T09:47:35;99512.91;;;26.63;58.42
63903;BME280;50072;50.678;13.938;2023-07-16T09:50:04;99505.19;;;27.06;56.91
63903;BME280;50072;50.678;13.938;2023-07-16T09:52:32;99510.56;;;26.98;58.08
63903;BME280;50072;50.678;13.938;2023-07-16T09:55:03;99507.31;;;27.22;56.66
63903;BME280;50072;50.678;13.938;2023-07-16T09:57:36;99500.19;;;27.39;57.45
63903;BME280;50072;50.678;13.938;2023-07-16T10:00:06;99498.31;;;27.95;56.51
63903;BME280;50072;50.678;13.938;2023-07-16T10:02:38;99503.47;;;28.08;56.45
63903;BME280;50072;50.678;13.938;2023-07-16T10:05:26;99504.75;;;28.14;58.49
63903;BME280;50072;50.678;13.938;2023-07-16T10:07:58;99504.84;;;27.94;55.73
63903;BME280;50072;50.678;13.938;2023-07-16T10:10:44;99511.38;;;27.65;59.38
63903;BME280;50072;50.678;13.938;2023-07-16T10:13:12;99506.53;;;27.49;57.35
63903;BME280;50072;50.678;13.938;2023-07-16T10:15:39;99511.78;;;27.33;59.19
63903;BME280;50072;50.678;13.938;2023-07-16T10:18:29;99521.03;;;27.42;56.97
63903;BME280;50072;50.678;13.938;2023-07-16T10:21:08;99521.88;;;28.26;56.70
63903;BME280;50072;50.678;13.938;2023-07-16T10:23:44;99521.31;;;28.04;56.25
63903;BME280;50072;50.678;13.938;2023-07-16T10:26:13;99527.41;;;27.42;57.91
63903;BME280;50072;50.678;13.938;2023-07-16T10:28:40;99520.50;;;27.18;57.58
63903;BME280;50072;50.678;13.938;2023-07-16T10:31:23;99528.38;;;26.64;61.41
63903;BME280;50072;50.678;13.938;2023-07-16T10:34:02;99528.06;;;26.48;61.29
63903;BME280;50072;50.678;13.938;2023-07-16T10:36:39;99533.53;;;26.09;62.25
63903;BME280;50072;50.678;13.938;2023-07-16T10:39:06;99538.00;;;25.69;64.00
63903;BME280;50072;50.678;13.938;2023-07-16T10:41:33;99543.25;;;26.52;62.18
63903;BME280;50072;50.678;13.938;2023-07-16T10:44:00;99545.84;;;27.02;59.32
63903;BME280;50072;50.678;13.938;2023-07-16T10:46:27;99547.00;;;27.57;57.52
63903;BME280;50072;50.678;13.938;2023-07-16T10:48:53;99538.59;;;27.59;56.55
63903;BME280;50072;50.678;13.938;2023-07-16T10:51:25;99542.34;;;27.95;55.54
63903;BME280;50072;50.678;13.938;2023-07-16T10:53:55;99537.50;;;28.07;54.29
63903;BME280;50072;50.678;13.938;2023-07-16T10:56:21;99540.47;;;28.78;53.66
63903;BME280;50072;50.678;13.938;2023-07-16T10:58:48;99535.84;;;29.04;51.60
63903;BME280;50072;50.678;13.938;2023-07-16T11:01:15;99551.78;;;28.38;52.17
63903;BME280;50072;50.678;13.938;2023-07-16T11:03:41;99548.56;;;28.25;51.44
63903;BME280;50072;50.678;13.938;2023-07-16T11:06:10;99544.94;;;28.61;51.72
63903;BME280;50072;50.678;13.938;2023-07-16T11:08:37;99548.75;;;29.22;49.75
63903;BME280;50072;50.678;13.938;2023-07-16T11:11:05;99545.25;;;29.72;49.28
63903;BME280;50072;50.678;13.938;2023-07-16T11:13:32;99541.75;;;29.62;47.87
63903;BME280;50072;50.678;13.938;2023-07-16T11:16:10;99540.34;;;29.92;47.51
63903;BME280;50072;50.678;13.938;2023-07-16T11:18:38;99527.84;;;29.72;46.67
63903;BME280;50072;50.678;13.938;2023-07-16T11:21:04;99523.22;;;30.40;45.41
63903;BME280;50072;50.678;13.938;2023-07-16T11:23:36;99520.16;;;30.59;44.97
63903;BME280;50072;50.678;13.938;2023-07-16T11:26:03;99523.47;;;29.95;44.81
63903;BME280;50072;50.678;13.938;2023-07-16T11:28:40;99524.53;;;32.07;41.60
63903;BME280;50072;50.678;13.938;2023-07-16T11:31:14;99522.66;;;32.62;38.94
63903;BME280;50072;50.678;13.938;2023-07-16T11:33:44;99531.28;;;31.73;40.76
63903;BME280;50072;50.678;13.938;2023-07-16T11:36:11;99537.63;;;30.85;42.44
63903;BME280;50072;50.678;13.938;2023-07-16T11:38:38;99528.84;;;30.05;44.09
63903;BME280;50072;50.678;13.938;2023-07-16T11:41:06;99527.44;;;29.93;44.37
63903;BME280;50072;50.678;13.938;2023-07-16T11:43:41;99526.69;;;29.48;44.24
63903;BME280;50072;50.678;13.938;2023-07-16T11:46:15;99512.00;;;28.51;47.23
63903;BME280;50072;50.678;13.938;2023-07-16T11:48:42;99510.69;;;28.99;45.96
63903;BME280;50072;50.678;13.938;2023-07-16T11:51:08;99507.88;;;28.91;47.30
63903;BME280;50072;50.678;13.938;2023-07-16T11:53:36;99521.81;;;29.16;47.26
63903;BME280;50072;50.678;13.938;2023-07-16T11:56:02;99529.47;;;28.78;47.10
63903;BME280;50072;50.678;13.938;2023-07-16T11:58:31;99521.44;;;29.37;45.59
63903;BME280;50072;50.678;13.938;2023-07-16T12:00:57;99517.06;;;31.04;40.53
63903;BME280;50072;50.678;13.938;2023-07-16T12:03:23;99528.59;;;30.41;41.39
63903;BME280;50072;50.678;13.938;2023-07-16T12:05:49;99521.81;;;29.16;44.15
63903;BME280;50072;50.678;13.938;2023-07-16T12:08:16;99521.19;;;28.59;45.80
63903;BME280;50072;50.678;13.938;2023-07-16T12:10:43;99517.03;;;28.19;45.90
63903;BME280;50072;50.678;13.938;2023-07-16T12:13:09;99513.25;;;28.56;44.94
63903;BME280;50072;50.678;13.938;2023-07-16T12:15:36;99513.25;;;29.19;44.85
63903;BME280;50072;50.678;13.938;2023-07-16T12:18:02;99504.84;;;29.89;41.66
63903;BME280;50072;50.678;13.938;2023-07-16T12:20:29;99511.31;;;29.46;42.61
63903;BME280;50072;50.678;13.938;2023-07-16T12:22:55;99511.44;;;30.05;41.40
63903;BME280;50072;50.678;13.938;2023-07-16T12:25:21;99508.84;;;30.03;41.44
63903;BME280;50072;50.678;13.938;2023-07-16T12:27:47;99526.59;;;30.60;40.18
63903;BME280;50072;50.678;13.938;2023-07-16T12:30:14;99512.19;;;29.20;42.08
63903;BME280;50072;50.678;13.938;2023-07-16T12:32:40;99512.72;;;31.82;36.79
63903;BME280;50072;50.678;13.938;2023-07-16T12:35:07;99511.63;;;31.60;38.04
63903;BME280;50072;50.678;13.938;2023-07-16T12:37:34;99513.34;;;34.06;33.18
63903;BME280;50072;50.678;13.938;2023-07-16T12:40:00;99507.91;;;36.59;29.59
63903;BME280;50072;50.678;13.938;2023-07-16T12:42:26;99517.94;;;37.81;26.66
63903;BME280;50072;50.678;13.938;2023-07-16T12:44:53;99510.84;;;40.00;24.82
63903;BME280;50072;50.678;13.938;2023-07-16T12:47:20;99503.63;;;40.84;23.02
63903;BME280;50072;50.678;13.938;2023-07-16T12:49:45;99504.28;;;38.82;25.06
63903;BME280;50072;50.678;13.938;2023-07-16T12:52:12;99496.25;;;38.28;25.94
63903;BME280;50072;50.678;13.938;2023-07-16T12:54:37;99501.56;;;38.37;25.79
63903;BME280;50072;50.678;13.938;2023-07-16T12:57:04;99508.28;;;39.18;24.78
63903;BME280;50072;50.678;13.938;2023-07-16T12:59:31;99501.88;;;40.41;23.29
63903;BME280;50072;50.678;13.938;2023-07-16T13:01:57;99512.53;;;38.77;25.11